Hovedside
METAR-TAF:

METAR-TAF

Lufthavner :

Leknes lufthavn

Leknes, Norge

breddegrad: 68-09N, lengdegrad: 013-37E, høyde over havet: 2 m

Gjeldene værobservasjon

Denne rapporten ble laget for 44 minutter siden, klokken 16:50 UTC
Vind 6 kt fra Nordøst
Temperatur 2°C
Luftfuktighet 87%
Trykk 1007 hPa
Sikt 10 km eller mer
Få skyer i en høyde av 1500 ft
Spredte skyer i en høyde av 2500 ft
regnbyger i nærheten

METAR: ENLK 181650Z 04006KT 9999 VCSH FEW015 SCT025 02/00 Q1007

Tid: 19:34 (17:34 UTC)


TAF: fraværende

Værobservasjoner og værvarsel for over 4000 flyplasser (METAR- og TAF-rapporter).

Tilgjengelige stasjoner er representert av de røde og gule prikkene på kartet.

Hold musepekeren over prikken for å se navnet på stasjonen.

Klikk så for å se værobservasjoner og -varsler.

For å forandre kartet kan du klikke på den grønne knappen med svart kryss for å zoome inn, på den grønne knappen med strek for å zoome ut, eller på de grønne pilene for å se tilstøtende kart.


METAR-TAF: